Time;durP1;ratioP1;P1;durP2;ratioP2;P2;SDS_P1;SDS_P2;PMS_P1;PMS_P2;Temp;Humidity;BMP_temperature;BMP_pressure;BME280_temperature;BME280_humidity;BME280_pressure;Samples;Min_cycle;Max_cycle;Signal;HPM_P1;HPM_P2
2022/07/08 00:01:33;;;;;;;;;;;17.10;85.30;;;;;;5074339;28;20347;-52
2022/07/08 00:03:59;;;;;;;;;;;17.10;85.50;;;;;;5069055;28;20396;-53
2022/07/08 00:06:24;;;;;;;;;;;17.00;85.40;;;;;;5074060;28;19909;-53
2022/07/08 00:08:50;;;;;;;;;;;17.00;85.50;;;;;;5074293;28;20028;-51
2022/07/08 00:11:15;;;;;;;;;;;17.00;85.90;;;;;;5073929;28;20372;-54
2022/07/08 00:13:41;;;;;;;;;;;16.90;86.00;;;;;;5073310;28;19908;-53
2022/07/08 00:16:07;;;;;;;;;;;16.90;86.20;;;;;;5074216;28;20368;-55
2022/07/08 00:18:32;;;;;;;;;;;16.80;86.20;;;;;;5073733;28;19961;-55
2022/07/08 00:20:58;;;;;;;;;;;16.80;86.30;;;;;;5073533;28;20365;-55
2022/07/08 00:23:23;;;;;;;;;;;16.80;86.40;;;;;;5073732;28;20023;-51
2022/07/08 00:25:49;;;;;;;;;;;16.80;86.30;;;;;;5055786;28;20399;-53
2022/07/08 00:28:14;;;;;;;;;;;16.80;86.20;;;;;;5073218;28;19920;-55
2022/07/08 00:30:40;;;;;;;;;;;16.80;86.30;;;;;;5066923;28;20081;-55
2022/07/08 00:33:05;;;;;;;;;;;16.80;86.30;;;;;;5073422;28;19908;-56
2022/07/08 00:35:31;;;;;;;;;;;16.70;86.60;;;;;;5073326;28;20438;-51
2022/07/08 00:37:56;;;;;;;;;;;16.70;86.70;;;;;;5073056;28;19913;-54
2022/07/08 00:40:22;;;;;;;;;;;16.60;86.60;;;;;;5073232;28;19916;-56
2022/07/08 00:42:48;;;;;;;;;;;16.70;86.50;;;;;;5072588;28;20039;-54
2022/07/08 00:45:17;;;;;;;;;;;16.70;86.70;;;;;;5073098;28;19966;-53
2022/07/08 00:47:43;;;;;;;;;;;16.70;86.70;;;;;;5072559;28;19925;-51
2022/07/08 00:50:09;;;;;;;;;;;16.70;86.80;;;;;;5055415;28;19917;-51
2022/07/08 00:52:38;;;;;;;;;;;16.60;86.70;;;;;;5072719;28;20019;-53
2022/07/08 00:55:05;;;;;;;;;;;16.60;86.60;;;;;;5072809;28;20362;-52
2022/07/08 00:57:30;;;;;;;;;;;16.60;86.40;;;;;;5072694;28;20416;-55
2022/07/08 00:59:56;;;;;;;;;;;16.60;86.70;;;;;;5072617;28;19940;-52
2022/07/08 01:02:21;;;;;;;;;;;16.60;86.80;;;;;;5066410;28;19921;-55
2022/07/08 01:04:47;;;;;;;;;;;16.50;86.00;;;;;;5072796;28;19919;-55
2022/07/08 01:07:13;;;;;;;;;;;16.40;86.40;;;;;;5072673;28;20355;-52
2022/07/08 01:09:38;;;;;;;;;;;16.40;86.50;;;;;;5071733;28;20011;-55
2022/07/08 01:12:04;;;;;;;;;;;16.40;86.50;;;;;;5073105;28;19952;-53
2022/07/08 01:14:30;;;;;;;;;;;16.40;86.40;;;;;;5070411;28;19912;-55
2022/07/08 01:16:55;;;;;;;;;;;16.30;86.00;;;;;;5072787;28;19965;-55
2022/07/08 01:19:21;;;;;;;;;;;16.30;86.10;;;;;;5054851;28;19931;-56
2022/07/08 01:21:47;;;;;;;;;;;16.30;86.10;;;;;;5054184;28;19986;-55
2022/07/08 01:24:12;;;;;;;;;;;16.30;86.20;;;;;;5072636;28;19999;-53
2022/07/08 01:26:38;;;;;;;;;;;16.30;86.40;;;;;;5071702;28;20637;-56
2022/07/08 01:29:03;;;;;;;;;;;16.30;86.60;;;;;;5071935;28;19908;-55
2022/07/08 01:31:29;;;;;;;;;;;16.30;86.70;;;;;;5070173;28;19909;-55
2022/07/08 01:33:54;;;;;;;;;;;16.20;86.80;;;;;;5072385;28;19992;-53
2022/07/08 01:36:20;;;;;;;;;;;16.20;87.10;;;;;;5072092;28;19909;-54
2022/07/08 01:38:46;;;;;;;;;;;16.10;87.10;;;;;;5072184;28;20066;-56
2022/07/08 01:41:11;;;;;;;;;;;16.10;87.40;;;;;;5071456;28;19999;-55
2022/07/08 01:43:37;;;;;;;;;;;16.10;87.60;;;;;;5072403;28;19916;-55
2022/07/08 01:46:02;;;;;;;;;;;16.10;87.80;;;;;;5071178;28;19958;-54
2022/07/08 01:48:28;;;;;;;;;;;16.00;88.20;;;;;;5072169;28;20295;-51
2022/07/08 01:50:53;;;;;;;;;;;15.90;88.70;;;;;;5071525;28;20369;-49
2022/07/08 01:53:19;;;;;;;;;;;15.80;89.10;;;;;;5072011;28;20357;-53
2022/07/08 01:55:45;;;;;;;;;;;15.80;89.20;;;;;;5071807;28;20015;-54
2022/07/08 01:58:11;;;;;;;;;;;15.80;89.00;;;;;;5068985;28;19963;-52
2022/07/08 02:00:37;;;;;;;;;;;15.80;88.80;;;;;;5071153;28;19909;-54
2022/07/08 02:03:02;;;;;;;;;;;15.80;89.30;;;;;;5071609;28;20315;-52
2022/07/08 02:05:28;;;;;;;;;;;15.80;89.20;;;;;;5071856;28;19975;-51
2022/07/08 02:07:53;;;;;;;;;;;15.70;89.10;;;;;;5069745;28;19912;-54
2022/07/08 02:10:19;;;;;;;;;;;15.70;89.20;;;;;;5071847;28;19912;-55
2022/07/08 02:12:44;;;;;;;;;;;15.70;89.40;;;;;;5071411;28;20665;-52
2022/07/08 02:15:10;;;;;;;;;;;15.60;89.60;;;;;;5071493;28;19908;-53
2022/07/08 02:17:39;;;;;;;;;;;15.60;89.60;;;;;;5071440;28;20361;-56
2022/07/08 02:20:06;;;;;;;;;;;15.60;89.90;;;;;;5071443;28;20004;-51
2022/07/08 02:22:32;;;;;;;;;;;15.50;89.90;;;;;;5071021;28;19916;-50
2022/07/08 02:24:57;;;;;;;;;;;15.50;89.80;;;;;;5071540;28;19908;-53
2022/07/08 02:27:23;;;;;;;;;;;15.40;90.00;;;;;;5071218;28;19920;-52
2022/07/08 02:29:49;;;;;;;;;;;15.30;90.10;;;;;;5071516;28;19920;-54
2022/07/08 02:32:14;;;;;;;;;;;15.30;90.30;;;;;;5071479;28;20258;-53
2022/07/08 02:34:40;;;;;;;;;;;15.30;90.40;;;;;;5071073;28;19954;-50
2022/07/08 02:37:05;;;;;;;;;;;15.30;90.70;;;;;;5070353;28;19908;-55
2022/07/08 02:39:31;;;;;;;;;;;15.30;90.70;;;;;;5071169;28;19974;-53
2022/07/08 02:41:56;;;;;;;;;;;15.20;90.70;;;;;;5071534;28;19931;-53
2022/07/08 02:44:22;;;;;;;;;;;15.20;90.60;;;;;;5070928;28;20008;-51
2022/07/08 02:46:47;;;;;;;;;;;15.20;90.70;;;;;;5064053;28;19908;-54
2022/07/08 02:49:13;;;;;;;;;;;15.20;90.80;;;;;;5070958;28;19916;-54
2022/07/08 02:51:39;;;;;;;;;;;15.20;90.70;;;;;;5052926;28;19912;-54
2022/07/08 02:54:05;;;;;;;;;;;15.20;90.90;;;;;;5070644;28;20426;-54
2022/07/08 02:56:31;;;;;;;;;;;15.10;90.80;;;;;;5070902;28;20434;-54
2022/07/08 02:58:57;;;;;;;;;;;15.10;90.80;;;;;;5071323;28;19908;-54
2022/07/08 03:01:22;;;;;;;;;;;15.10;91.00;;;;;;5070965;28;20327;-52
2022/07/08 03:03:48;;;;;;;;;;;15.10;90.90;;;;;;5070644;28;20353;-53
2022/07/08 03:06:14;;;;;;;;;;;15.10;91.00;;;;;;5063564;28;19912;-53
2022/07/08 03:08:40;;;;;;;;;;;15.10;90.90;;;;;;5070788;28;20335;-53
2022/07/08 03:11:05;;;;;;;;;;;15.10;90.80;;;;;;5070827;28;19913;-53
2022/07/08 03:13:31;;;;;;;;;;;15.10;90.80;;;;;;5070626;28;20285;-54
2022/07/08 03:15:57;;;;;;;;;;;15.10;90.90;;;;;;5052382;28;19913;-56
2022/07/08 03:18:23;;;;;;;;;;;15.10;90.80;;;;;;5070461;28;20297;-53
2022/07/08 03:20:48;;;;;;;;;;;15.10;90.80;;;;;;5070124;28;19993;-54
2022/07/08 03:23:14;;;;;;;;;;;15.10;90.70;;;;;;5070563;28;19928;-54
2022/07/08 03:25:39;;;;;;;;;;;15.00;90.70;;;;;;5070467;28;19909;-55
2022/07/08 03:28:05;;;;;;;;;;;15.00;90.80;;;;;;5070528;28;19916;-56
2022/07/08 03:30:30;;;;;;;;;;;15.00;90.90;;;;;;5070941;28;19908;-54
2022/07/08 03:32:56;;;;;;;;;;;15.00;91.00;;;;;;5073035;28;20327;-56
2022/07/08 03:35:22;;;;;;;;;;;15.00;90.90;;;;;;5074270;28;19912;-52
2022/07/08 03:37:47;;;;;;;;;;;15.00;91.00;;;;;;5074568;28;19998;-55
2022/07/08 03:42:58;;;;;;;;;;;15.00;90.90;;;;;;5074332;28;20400;-55
2022/07/08 03:45:23;;;;;;;;;;;15.00;91.00;;;;;;5074254;28;20019;-52
2022/07/08 03:47:49;;;;;;;;;;;14.90;91.00;;;;;;5069471;28;20016;-54
2022/07/08 03:50:14;;;;;;;;;;;15.00;91.20;;;;;;5071576;28;19912;-54
2022/07/08 03:52:40;;;;;;;;;;;14.90;91.00;;;;;;5073940;28;20434;-54
2022/07/08 03:55:06;;;;;;;;;;;14.90;90.90;;;;;;5074417;28;19912;-54
2022/07/08 03:57:32;;;;;;;;;;;14.90;91.50;;;;;;5074282;28;19915;-54
2022/07/08 03:59:57;;;;;;;;;;;14.80;91.20;;;;;;5074109;28;19917;-55
2022/07/08 04:02:23;;;;;;;;;;;14.90;91.20;;;;;;5068873;28;19987;-55
2022/07/08 04:04:48;;;;;;;;;;;14.80;91.40;;;;;;5074055;28;19916;-56
2022/07/08 04:07:14;;;;;;;;;;;14.80;91.40;;;;;;5073818;28;19908;-55
2022/07/08 04:09:40;;;;;;;;;;;14.80;91.50;;;;;;5073992;28;20007;-54
2022/07/08 04:12:05;;;;;;;;;;;14.80;91.60;;;;;;5073840;28;19958;-54
2022/07/08 04:14:31;;;;;;;;;;;14.80;91.40;;;;;;5074398;28;19912;-55
2022/07/08 04:16:57;;;;;;;;;;;14.70;91.30;;;;;;5073165;28;19908;-54
2022/07/08 04:19:22;;;;;;;;;;;14.70;91.40;;;;;;5073449;28;19909;-55
2022/07/08 04:21:48;;;;;;;;;;;14.80;91.50;;;;;;5072848;28;19916;-55
2022/07/08 04:24:13;;;;;;;;;;;14.80;91.50;;;;;;5073899;28;19963;-56
2022/07/08 04:26:38;;;;;;;;;;;14.80;91.60;;;;;;5073174;28;19969;-55
2022/07/08 04:29:04;;;;;;;;;;;14.80;91.50;;;;;;5073244;28;19910;-55
2022/07/08 04:31:29;;;;;;;;;;;14.80;91.60;;;;;;5073444;28;19958;-51
2022/07/08 04:33:55;;;;;;;;;;;14.80;91.50;;;;;;5073342;28;20262;-51
2022/07/08 04:36:21;;;;;;;;;;;14.80;91.50;;;;;;5073605;28;19916;-54
2022/07/08 04:38:46;;;;;;;;;;;14.80;91.60;;;;;;5073243;28;19915;-55
2022/07/08 04:41:12;;;;;;;;;;;14.80;91.60;;;;;;5073538;28;19908;-55
2022/07/08 04:43:38;;;;;;;;;;;14.90;91.60;;;;;;5072463;28;20009;-55
2022/07/08 04:46:04;;;;;;;;;;;14.90;91.40;;;;;;5072880;28;19909;-54
2022/07/08 04:48:30;;;;;;;;;;;14.90;91.50;;;;;;5073027;28;20313;-54
2022/07/08 04:50:56;;;;;;;;;;;15.00;91.40;;;;;;5073312;28;19916;-51
2022/07/08 04:53:21;;;;;;;;;;;15.00;91.60;;;;;;5073297;28;20024;-55
2022/07/08 04:55:47;;;;;;;;;;;15.00;91.50;;;;;;5072887;28;19912;-55
2022/07/08 04:58:12;;;;;;;;;;;15.00;91.50;;;;;;5072941;28;19913;-56
2022/07/08 05:00:38;;;;;;;;;;;15.10;91.60;;;;;;5073260;28;19908;-54
2022/07/08 05:03:03;;;;;;;;;;;15.10;91.50;;;;;;5072001;28;19923;-54
2022/07/08 05:05:30;;;;;;;;;;;15.10;91.60;;;;;;5072806;28;19908;-55
2022/07/08 05:07:58;;;;;;;;;;;15.10;91.50;;;;;;5072971;28;19908;-55
2022/07/08 05:10:24;;;;;;;;;;;15.20;91.50;;;;;;5067207;28;19955;-54
2022/07/08 05:12:50;;;;;;;;;;;15.20;91.50;;;;;;5072753;28;19916;-56
2022/07/08 05:15:16;;;;;;;;;;;15.20;91.50;;;;;;5073181;28;19916;-53
2022/07/08 05:17:42;;;;;;;;;;;15.30;91.40;;;;;;5053535;28;19913;-55
2022/07/08 05:20:08;;;;;;;;;;;15.30;91.40;;;;;;5072723;28;20335;-55
2022/07/08 05:22:34;;;;;;;;;;;15.30;91.40;;;;;;5072565;28;19916;-54
2022/07/08 05:24:59;;;;;;;;;;;15.30;91.40;;;;;;5073005;28;19919;-51
2022/07/08 05:27:25;;;;;;;;;;;15.40;91.40;;;;;;5072580;28;19934;-55
2022/07/08 05:29:50;;;;;;;;;;;15.40;91.40;;;;;;5071976;28;19962;-56
2022/07/08 05:32:16;;;;;;;;;;;15.40;91.40;;;;;;5072227;28;20373;-55
2022/07/08 05:34:44;;;;;;;;;;;15.40;91.40;;;;;;5072308;28;19936;-55
2022/07/08 05:37:13;;;;;;;;;;;15.40;91.40;;;;;;5037211;28;19934;-54
2022/07/08 05:39:39;;;;;;;;;;;15.50;91.40;;;;;;5070086;28;19908;-56
2022/07/08 05:42:06;;;;;;;;;;;15.50;91.40;;;;;;5072319;28;20003;-51
2022/07/08 05:44:31;;;;;;;;;;;15.50;91.30;;;;;;5072246;28;19913;-55
2022/07/08 05:46:57;;;;;;;;;;;15.50;91.40;;;;;;5071570;28;19931;-56
2022/07/08 05:49:23;;;;;;;;;;;15.60;91.30;;;;;;5071967;28;19915;-52
2022/07/08 05:51:48;;;;;;;;;;;15.60;91.30;;;;;;5071852;28;19920;-55
2022/07/08 05:54:14;;;;;;;;;;;15.60;91.40;;;;;;5072229;28;20272;-55
2022/07/08 05:56:39;;;;;;;;;;;15.60;91.40;;;;;;5071465;28;19952;-54
2022/07/08 05:59:05;;;;;;;;;;;15.70;91.30;;;;;;5071687;28;19909;-55
2022/07/08 06:01:30;;;;;;;;;;;15.70;91.30;;;;;;5071461;28;19912;-54
2022/07/08 06:03:56;;;;;;;;;;;15.70;91.30;;;;;;5071268;28;19955;-51
2022/07/08 06:06:22;;;;;;;;;;;15.70;91.20;;;;;;5072264;28;19934;-51
2022/07/08 06:08:48;;;;;;;;;;;15.70;91.20;;;;;;5071704;28;19908;-53
2022/07/08 06:11:14;;;;;;;;;;;15.80;91.30;;;;;;5071577;28;19916;-51
2022/07/08 06:13:39;;;;;;;;;;;15.80;91.20;;;;;;5071906;28;19931;-54
2022/07/08 06:16:05;;;;;;;;;;;15.80;91.30;;;;;;5070949;28;19909;-55
2022/07/08 06:18:31;;;;;;;;;;;15.80;91.20;;;;;;5071486;28;20384;-54
2022/07/08 06:20:56;;;;;;;;;;;15.90;91.20;;;;;;5053292;28;19915;-54
2022/07/08 06:23:22;;;;;;;;;;;15.90;91.10;;;;;;5071147;28;19916;-54
2022/07/08 06:25:47;;;;;;;;;;;15.90;91.10;;;;;;5070799;28;20365;-52
2022/07/08 06:28:14;;;;;;;;;;;15.90;91.10;;;;;;5071502;28;19909;-52
2022/07/08 06:30:39;;;;;;;;;;;16.00;91.10;;;;;;5070520;28;19991;-56
2022/07/08 06:33:05;;;;;;;;;;;16.00;91.00;;;;;;5058469;28;20008;-54
2022/07/08 06:35:31;;;;;;;;;;;16.00;90.90;;;;;;5071303;28;20364;-55
2022/07/08 06:37:57;;;;;;;;;;;16.00;90.90;;;;;;5067807;28;19909;-53
2022/07/08 06:40:23;;;;;;;;;;;16.10;90.70;;;;;;5067059;28;19931;-54
2022/07/08 06:42:49;;;;;;;;;;;16.10;90.70;;;;;;5070188;28;20393;-52
2022/07/08 06:45:14;;;;;;;;;;;16.00;90.70;;;;;;5053921;28;19968;-51
2022/07/08 06:47:40;;;;;;;;;;;16.10;90.90;;;;;;5059923;28;19924;-59
2022/07/08 06:50:06;;;;;;;;;;;16.10;90.90;;;;;;5069961;28;20319;-58
2022/07/08 06:52:32;;;;;;;;;;;16.20;90.90;;;;;;5070596;28;19909;-59
2022/07/08 06:54:59;;;;;;;;;;;16.30;90.90;;;;;;5069989;28;19952;-58
2022/07/08 06:57:24;;;;;;;;;;;16.40;90.70;;;;;;5069581;28;19918;-58
2022/07/08 06:59:50;;;;;;;;;;;16.50;90.60;;;;;;5046497;28;19917;-58
2022/07/08 07:02:16;;;;;;;;;;;16.40;90.60;;;;;;5072701;28;19917;-58
2022/07/08 07:04:41;;;;;;;;;;;16.50;90.70;;;;;;5078899;28;19917;-57
2022/07/08 07:07:07;;;;;;;;;;;16.60;90.50;;;;;;5075744;28;19915;-58
2022/07/08 07:09:32;;;;;;;;;;;16.60;90.40;;;;;;5077130;28;19914;-59
2022/07/08 07:11:58;;;;;;;;;;;16.70;90.20;;;;;;5078671;28;20441;-58
2022/07/08 07:14:24;;;;;;;;;;;16.70;90.10;;;;;;5078106;28;19913;-58
2022/07/08 07:16:49;;;;;;;;;;;16.70;90.20;;;;;;5080296;28;19908;-57
2022/07/08 07:19:15;;;;;;;;;;;16.80;89.70;;;;;;5079395;28;19908;-58
2022/07/08 07:21:40;;;;;;;;;;;16.80;89.60;;;;;;5078873;28;19916;-57
2022/07/08 07:24:06;;;;;;;;;;;16.70;89.70;;;;;;5069065;28;20289;-58
2022/07/08 07:26:31;;;;;;;;;;;16.80;89.60;;;;;;5070727;28;20350;-57
2022/07/08 07:28:57;;;;;;;;;;;16.70;89.30;;;;;;5069775;28;20006;-56
2022/07/08 07:31:22;;;;;;;;;;;16.80;89.60;;;;;;5070296;28;19947;-59
2022/07/08 07:33:48;;;;;;;;;;;16.90;89.70;;;;;;5070243;28;20433;-58
2022/07/08 07:36:13;;;;;;;;;;;16.90;89.20;;;;;;5069098;28;19908;-56
2022/07/08 07:38:39;;;;;;;;;;;16.90;88.50;;;;;;5064971;28;19916;-58
2022/07/08 07:41:04;;;;;;;;;;;16.90;88.70;;;;;;5068076;28;20338;-57
2022/07/08 07:43:30;;;;;;;;;;;16.90;89.10;;;;;;5066939;28;19925;-57
2022/07/08 07:45:56;;;;;;;;;;;16.90;88.40;;;;;;5067613;28;19912;-59
2022/07/08 07:48:21;;;;;;;;;;;16.90;88.70;;;;;;5067819;28;19920;-58
2022/07/08 07:50:46;;;;;;;;;;;17.00;89.00;;;;;;5068143;28;20006;-59
2022/07/08 07:53:12;;;;;;;;;;;17.10;88.60;;;;;;5067967;28;20307;-57
2022/07/08 07:55:38;;;;;;;;;;;17.10;88.40;;;;;;5068210;28;20484;-58
2022/07/08 07:58:04;;;;;;;;;;;17.10;88.40;;;;;;5068123;28;19927;-58
2022/07/08 08:00:30;;;;;;;;;;;17.10;88.30;;;;;;5067361;28;19917;-58
2022/07/08 08:02:55;;;;;;;;;;;17.20;88.30;;;;;;5068051;28;20599;-58
2022/07/08 08:05:21;;;;;;;;;;;17.20;87.70;;;;;;5067795;28;19908;-58
2022/07/08 08:07:46;;;;;;;;;;;17.10;87.30;;;;;;5067893;28;19967;-57
2022/07/08 08:10:13;;;;;;;;;;;17.10;87.70;;;;;;5072282;28;19956;-58
2022/07/08 08:12:39;;;;;;;;;;;17.20;87.50;;;;;;5072848;28;20483;-58
2022/07/08 08:15:04;;;;;;;;;;;17.20;87.70;;;;;;5074750;28;19915;-58
2022/07/08 08:17:36;;;;;;;;;;;17.20;87.70;;;;;;5072747;28;19924;-58
2022/07/08 08:20:03;;;;;;;;;;;17.30;87.40;;;;;;5074877;28;19935;-58
2022/07/08 08:22:28;;;;;;;;;;;17.30;87.70;;;;;;5070493;28;19963;-58
2022/07/08 08:24:54;;;;;;;;;;;17.40;87.60;;;;;;5069133;28;19951;-58
2022/07/08 08:27:19;;;;;;;;;;;17.40;87.40;;;;;;5068975;28;19912;-57
2022/07/08 08:29:45;;;;;;;;;;;17.40;86.30;;;;;;5070829;28;20453;-57
2022/07/08 08:32:10;;;;;;;;;;;17.40;86.80;;;;;;5072675;28;19919;-58
2022/07/08 08:34:36;;;;;;;;;;;17.40;86.50;;;;;;5077532;28;19920;-58
2022/07/08 08:37:01;;;;;;;;;;;17.50;86.40;;;;;;5070712;28;20014;-58
2022/07/08 08:39:27;;;;;;;;;;;17.50;85.80;;;;;;5045708;28;19952;-58
2022/07/08 08:41:52;;;;;;;;;;;17.50;86.10;;;;;;5067542;28;20010;-58
2022/07/08 08:44:18;;;;;;;;;;;17.50;86.20;;;;;;5067876;28;19966;-57
2022/07/08 08:46:44;;;;;;;;;;;17.50;85.80;;;;;;5069880;28;19917;-58
2022/07/08 08:49:10;;;;;;;;;;;17.50;85.80;;;;;;5070915;28;20003;-57
2022/07/08 08:51:37;;;;;;;;;;;17.50;86.30;;;;;;5070628;28;20373;-58
2022/07/08 08:54:02;;;;;;;;;;;17.60;86.10;;;;;;5071032;28;20396;-57
2022/07/08 08:56:28;;;;;;;;;;;17.60;84.90;;;;;;5070717;28;19912;-55
2022/07/08 08:58:54;;;;;;;;;;;17.60;84.60;;;;;;5070571;28;20015;-59
2022/07/08 09:01:20;;;;;;;;;;;17.70;84.60;;;;;;5070457;28;20312;-57
2022/07/08 09:03:46;;;;;;;;;;;17.70;84.60;;;;;;5070732;28;19916;-60
2022/07/08 09:06:11;;;;;;;;;;;17.80;84.50;;;;;;5070614;28;19920;-61
2022/07/08 09:08:38;;;;;;;;;;;17.80;85.00;;;;;;5070159;28;20293;-57
2022/07/08 09:11:04;;;;;;;;;;;17.90;83.90;;;;;;5070693;28;19940;-59
2022/07/08 09:13:30;;;;;;;;;;;17.90;84.20;;;;;;5070730;28;20350;-57
2022/07/08 09:15:59;;;;;;;;;;;18.00;82.90;;;;;;5070771;28;19917;-58
2022/07/08 09:18:28;;;;;;;;;;;18.00;83.30;;;;;;5069931;28;20323;-58
2022/07/08 09:20:55;;;;;;;;;;;18.00;82.80;;;;;;5069481;28;19913;-56
2022/07/08 09:23:21;;;;;;;;;;;18.10;82.80;;;;;;5069722;28;19936;-57
2022/07/08 09:25:48;;;;;;;;;;;18.10;83.40;;;;;;5072673;28;19923;-58
2022/07/08 09:28:15;;;;;;;;;;;18.20;82.90;;;;;;5074733;28;20429;-57
2022/07/08 09:30:42;;;;;;;;;;;18.20;81.90;;;;;;5074287;28;19956;-57
2022/07/08 09:33:08;;;;;;;;;;;18.20;82.10;;;;;;5069982;28;19912;-57
2022/07/08 09:35:35;;;;;;;;;;;18.30;82.10;;;;;;5070116;28;19920;-57
2022/07/08 09:38:03;;;;;;;;;;;18.30;81.90;;;;;;5069684;28;19935;-58
2022/07/08 09:40:29;;;;;;;;;;;18.30;81.10;;;;;;5070283;28;19919;-57
2022/07/08 09:42:54;;;;;;;;;;;18.40;80.90;;;;;;5041728;28;19920;-58
2022/07/08 09:45:21;;;;;;;;;;;18.40;81.20;;;;;;5069715;28;19970;-58
2022/07/08 09:47:51;;;;;;;;;;;18.40;80.90;;;;;;5068509;28;20212;-58
2022/07/08 09:50:17;;;;;;;;;;;18.40;81.30;;;;;;5071451;28;19919;-58
2022/07/08 09:52:42;;;;;;;;;;;18.50;82.20;;;;;;5069514;28;19913;-57
2022/07/08 09:55:08;;;;;;;;;;;18.60;81.60;;;;;;5069949;28;19917;-59
2022/07/08 09:57:33;;;;;;;;;;;18.70;80.60;;;;;;5069139;28;19916;-59
2022/07/08 09:59:59;;;;;;;;;;;18.70;80.50;;;;;;5069368;28;20404;-60
2022/07/08 10:02:27;;;;;;;;;;;18.70;79.70;;;;;;5070601;28;20354;-61
2022/07/08 10:04:52;;;;;;;;;;;18.80;78.80;;;;;;5067182;28;19913;-58
2022/07/08 10:07:18;;;;;;;;;;;18.80;78.30;;;;;;5068469;28;19912;-57
2022/07/08 10:09:43;;;;;;;;;;;18.80;79.00;;;;;;5068323;28;19920;-58
2022/07/08 10:12:13;;;;;;;;;;;18.90;76.90;;;;;;5069245;28;19916;-56
2022/07/08 10:14:39;;;;;;;;;;;18.90;77.30;;;;;;5068637;28;19913;-58
2022/07/08 10:17:10;;;;;;;;;;;18.90;77.70;;;;;;5068230;28;19912;-59
2022/07/08 10:19:40;;;;;;;;;;;18.90;77.50;;;;;;5068540;28;19916;-55
2022/07/08 10:22:08;;;;;;;;;;;19.00;76.20;;;;;;5068820;28;20270;-59
2022/07/08 10:24:38;;;;;;;;;;;19.00;76.00;;;;;;5068596;28;19916;-57
2022/07/08 10:27:03;;;;;;;;;;;19.00;76.80;;;;;;5074490;28;19962;-58
2022/07/08 10:29:30;;;;;;;;;;;19.10;76.20;;;;;;5069004;28;19921;-58
2022/07/08 10:31:55;;;;;;;;;;;19.20;77.30;;;;;;5066678;28;19919;-58
2022/07/08 10:34:22;;;;;;;;;;;19.20;77.20;;;;;;5067295;28;19913;-58
2022/07/08 10:36:49;;;;;;;;;;;19.30;75.80;;;;;;5068403;28;19916;-60
2022/07/08 10:39:25;;;;;;;;;;;19.40;75.00;;;;;;5068883;28;20004;-58
2022/07/08 10:41:57;;;;;;;;;;;19.50;73.20;;;;;;5067666;28;19947;-59
2022/07/08 10:44:43;;;;;;;;;;;19.50;73.50;;;;;;5068376;28;19927;-59
2022/07/08 10:47:09;;;;;;;;;;;19.50;74.40;;;;;;5067025;28;19920;-58
2022/07/08 10:49:41;;;;;;;;;;;19.50;74.80;;;;;;5067785;28;20355;-59
2022/07/08 10:52:06;;;;;;;;;;;19.60;74.40;;;;;;5069332;28;19920;-59
2022/07/08 10:54:36;;;;;;;;;;;19.70;75.00;;;;;;5068199;28;19931;-60
2022/07/08 10:57:06;;;;;;;;;;;19.80;74.90;;;;;;5068406;28;20784;-59
2022/07/08 10:59:33;;;;;;;;;;;19.80;75.10;;;;;;5068816;28;20653;-59
2022/07/08 11:02:02;;;;;;;;;;;20.00;73.40;;;;;;5068493;28;19931;-58
2022/07/08 11:04:28;;;;;;;;;;;20.00;71.60;;;;;;5068333;28;19912;-59
2022/07/08 11:07:12;;;;;;;;;;;20.00;73.00;;;;;;5067831;28;19912;-57
2022/07/08 11:09:39;;;;;;;;;;;20.00;73.30;;;;;;5068286;28;19967;-57
2022/07/08 11:12:05;;;;;;;;;;;20.10;73.20;;;;;;5068468;28;20641;-58
2022/07/08 11:14:31;;;;;;;;;;;20.20;73.00;;;;;;5068235;28;19912;-59
2022/07/08 11:16:57;;;;;;;;;;;20.20;72.40;;;;;;5067133;28;20321;-58
2022/07/08 11:19:30;;;;;;;;;;;20.30;71.80;;;;;;5068092;28;19983;-57
2022/07/08 11:22:02;;;;;;;;;;;20.30;72.50;;;;;;5066384;28;19974;-58
2022/07/08 11:24:28;;;;;;;;;;;20.40;70.60;;;;;;5047188;28;20002;-56
2022/07/08 11:26:54;;;;;;;;;;;20.40;71.10;;;;;;5066135;28;20357;-58
2022/07/08 11:29:24;;;;;;;;;;;20.50;70.40;;;;;;5068180;28;19918;-60
2022/07/08 11:31:56;;;;;;;;;;;20.50;70.60;;;;;;5070425;28;20365;-58
2022/07/08 11:34:24;;;;;;;;;;;20.60;70.80;;;;;;5070547;28;19913;-52
2022/07/08 11:36:57;;;;;;;;;;;20.60;70.70;;;;;;5068653;28;19912;-57
2022/07/08 11:39:23;;;;;;;;;;;20.60;70.90;;;;;;5075599;28;19920;-56
2022/07/08 11:41:48;;;;;;;;;;;20.80;69.60;;;;;;5057766;28;19969;-52
2022/07/08 11:44:18;;;;;;;;;;;20.90;70.50;;;;;;5070734;28;19920;-57
2022/07/08 11:46:48;;;;;;;;;;;20.90;70.10;;;;;;5070086;28;19912;-57
2022/07/08 11:49:14;;;;;;;;;;;21.00;69.00;;;;;;5068137;28;19919;-57
2022/07/08 11:51:50;;;;;;;;;;;21.10;69.60;;;;;;5070774;28;19909;-56
2022/07/08 11:54:18;;;;;;;;;;;21.10;68.40;;;;;;5070830;28;19995;-56
2022/07/08 11:56:44;;;;;;;;;;;21.10;69.80;;;;;;5070133;28;19912;-53
2022/07/08 11:59:09;;;;;;;;;;;21.20;68.20;;;;;;5073944;28;19909;-55
2022/07/08 12:01:35;;;;;;;;;;;21.20;68.60;;;;;;5074330;28;20262;-57
2022/07/08 12:04:05;;;;;;;;;;;21.30;68.40;;;;;;5042820;28;20277;-56
2022/07/08 12:06:30;;;;;;;;;;;21.40;67.90;;;;;;5073721;28;20310;-56
2022/07/08 12:08:56;;;;;;;;;;;21.40;67.20;;;;;;5073923;28;20358;-57
2022/07/08 12:11:25;;;;;;;;;;;21.40;67.50;;;;;;5073767;28;20293;-57
2022/07/08 12:13:51;;;;;;;;;;;21.40;67.30;;;;;;5073699;28;19965;-58
2022/07/08 12:16:33;;;;;;;;;;;21.40;66.90;;;;;;5074551;28;19913;-57
2022/07/08 12:18:59;;;;;;;;;;;21.40;67.90;;;;;;5073393;28;19912;-57
2022/07/08 12:21:25;;;;;;;;;;;21.40;66.70;;;;;;5074159;28;19923;-53
2022/07/08 12:23:56;;;;;;;;;;;21.50;67.30;;;;;;5073665;28;19916;-58
2022/07/08 12:26:22;;;;;;;;;;;21.50;67.40;;;;;;5073849;28;19913;-56
2022/07/08 12:28:47;;;;;;;;;;;21.60;66.00;;;;;;5073399;28;19974;-57
2022/07/08 12:31:30;;;;;;;;;;;21.60;65.20;;;;;;5073488;28;19909;-55
2022/07/08 12:33:59;;;;;;;;;;;21.70;66.00;;;;;;5073550;28;19919;-57
2022/07/08 12:36:25;;;;;;;;;;;21.70;65.60;;;;;;5074008;28;19908;-58
2022/07/08 12:38:51;;;;;;;;;;;21.80;66.10;;;;;;5073538;28;20006;-54
2022/07/08 12:41:20;;;;;;;;;;;21.90;66.00;;;;;;5073604;28;20059;-56
2022/07/08 12:43:46;;;;;;;;;;;22.00;64.90;;;;;;5073178;28;19924;-55
2022/07/08 12:46:11;;;;;;;;;;;22.00;65.80;;;;;;5073195;28;20125;-57
2022/07/08 12:48:37;;;;;;;;;;;22.00;66.20;;;;;;5072925;28;19971;-56
2022/07/08 12:51:02;;;;;;;;;;;22.10;64.80;;;;;;5073629;28;19909;-58
2022/07/08 12:53:28;;;;;;;;;;;22.10;64.80;;;;;;5073677;28;19913;-57
2022/07/08 12:55:53;;;;;;;;;;;22.20;63.80;;;;;;5067571;28;19909;-58
2022/07/08 12:58:24;;;;;;;;;;;22.20;65.30;;;;;;5073164;28;19909;-57
2022/07/08 13:00:50;;;;;;;;;;;22.30;63.90;;;;;;5072685;28;19958;-55
2022/07/08 13:03:16;;;;;;;;;;;22.50;63.40;;;;;;5071284;28;20273;-54
2022/07/08 13:05:42;;;;;;;;;;;22.60;63.30;;;;;;5071800;28;19912;-56
2022/07/08 13:08:08;;;;;;;;;;;22.50;63.80;;;;;;5073005;28;19967;-57
2022/07/08 13:10:34;;;;;;;;;;;22.50;63.20;;;;;;5073246;28;19908;-56
2022/07/08 13:13:05;;;;;;;;;;;22.50;64.10;;;;;;5071907;28;19962;-57
2022/07/08 13:15:31;;;;;;;;;;;22.50;63.80;;;;;;5064982;28;19909;-56
2022/07/08 13:17:56;;;;;;;;;;;22.60;63.10;;;;;;5072751;28;19916;-53
2022/07/08 13:20:22;;;;;;;;;;;22.70;63.20;;;;;;5072550;28;19908;-56
2022/07/08 13:22:47;;;;;;;;;;;22.80;63.00;;;;;;5072276;28;19918;-56
2022/07/08 13:25:13;;;;;;;;;;;22.80;62.80;;;;;;5054170;28;19908;-57
2022/07/08 13:27:41;;;;;;;;;;;22.70;63.50;;;;;;5072620;28;19912;-56
2022/07/08 13:30:07;;;;;;;;;;;22.80;63.90;;;;;;5058371;28;20414;-55
2022/07/08 13:32:33;;;;;;;;;;;22.80;62.40;;;;;;5074211;28;19916;-56
2022/07/08 13:34:58;;;;;;;;;;;23.00;63.40;;;;;;5073980;28;19966;-56
2022/07/08 13:37:24;;;;;;;;;;;23.00;62.50;;;;;;5065165;28;19944;-56
2022/07/08 13:39:49;;;;;;;;;;;23.00;61.40;;;;;;5069883;28;19923;-57
2022/07/08 13:42:15;;;;;;;;;;;23.00;60.90;;;;;;5071535;28;19920;-57
2022/07/08 13:44:40;;;;;;;;;;;23.10;60.50;;;;;;5070483;28;19956;-58
2022/07/08 13:47:06;;;;;;;;;;;23.20;60.30;;;;;;5070273;28;19920;-57
2022/07/08 13:49:31;;;;;;;;;;;23.40;60.80;;;;;;5069520;28;19920;-56
2022/07/08 13:51:57;;;;;;;;;;;23.40;60.10;;;;;;5064266;28;19999;-56
2022/07/08 13:54:22;;;;;;;;;;;23.50;60.00;;;;;;5068886;28;19981;-57
2022/07/08 13:56:48;;;;;;;;;;;23.40;60.10;;;;;;5069968;28;19995;-54
2022/07/08 13:59:13;;;;;;;;;;;23.50;59.30;;;;;;5068448;28;19922;-56
2022/07/08 14:01:39;;;;;;;;;;;23.50;58.60;;;;;;5068962;28;19909;-56
2022/07/08 14:04:04;;;;;;;;;;;23.60;58.60;;;;;;5069072;28;19960;-56
2022/07/08 14:06:30;;;;;;;;;;;23.60;59.30;;;;;;5068957;28;19912;-57
2022/07/08 14:08:55;;;;;;;;;;;23.60;60.20;;;;;;5069080;28;19909;-57
2022/07/08 14:11:21;;;;;;;;;;;23.60;59.80;;;;;;5067261;28;19923;-57
2022/07/08 14:13:46;;;;;;;;;;;23.70;59.40;;;;;;5068343;28;19912;-55